Time;durP1;ratioP1;P1;durP2;ratioP2;P2;SDS_P1;SDS_P2;PMS_P1;PMS_P2;Temp;Humidity;BMP_temperature;BMP_pressure;BME280_temperature;BME280_humidity;BME280_pressure;Samples;Min_cycle;Max_cycle;Signal;HPM_P1;HPM_P2
2021/11/23 00:00:49;;;;;;;3.70;2.87;;;3.00;77.70;;;;;;4908911;29;20503;-42
2021/11/23 00:03:17;;;;;;;3.57;2.27;;;3.00;77.60;;;;;;4894209;29;20461;-42
2021/11/23 00:05:48;;;;;;;3.83;2.90;;;3.00;77.60;;;;;;4895409;29;20806;-42
2021/11/23 00:08:17;;;;;;;2.63;2.40;;;3.00;77.60;;;;;;4911283;29;20468;-42
2021/11/23 00:10:45;;;;;;;4.37;3.50;;;2.90;77.70;;;;;;4909624;29;20544;-42
2021/11/23 00:13:13;;;;;;;3.00;2.70;;;2.90;77.70;;;;;;4909848;29;20468;-42
2021/11/23 00:15:41;;;;;;;2.20;2.10;;;2.90;77.70;;;;;;4910824;29;21157;-42
2021/11/23 00:18:10;;;;;;;9.43;2.67;;;2.90;77.70;;;;;;4909582;29;20488;-42
2021/11/23 00:20:38;;;;;;;2.53;2.33;;;2.80;77.60;;;;;;4909503;29;20460;-42
2021/11/23 00:23:05;;;;;;;3.53;2.20;;;2.80;77.60;;;;;;4910182;29;22115;-42
2021/11/23 00:25:32;;;;;;;3.67;2.63;;;2.80;77.80;;;;;;4909344;29;20818;-42
2021/11/23 00:27:59;;;;;;;4.20;2.67;;;2.70;77.80;;;;;;4887400;29;20829;-42
2021/11/23 00:30:29;;;;;;;7.77;4.63;;;2.70;77.80;;;;;;4894160;29;21165;-42
2021/11/23 00:32:57;;;;;;;10.97;7.63;;;2.60;77.70;;;;;;4910512;29;20461;-42
2021/11/23 00:35:24;;;;;;;11.53;8.00;;;2.60;77.60;;;;;;4910446;29;20461;-42
2021/11/23 00:37:51;;;;;;;11.37;7.57;;;2.60;77.70;;;;;;4910446;29;20498;-42
2021/11/23 00:40:20;;;;;;;11.63;7.23;;;2.50;77.80;;;;;;4908291;29;20495;-42
2021/11/23 00:42:47;;;;;;;11.53;6.13;;;2.50;77.80;;;;;;4893323;29;20909;-42
2021/11/23 00:45:16;;;;;;;5.00;3.83;;;2.40;77.90;;;;;;4910131;29;20475;-42
2021/11/23 00:47:43;;;;;;;5.93;2.40;;;2.40;78.00;;;;;;4910488;29;20987;-43
2021/11/23 00:50:11;;;;;;;2.43;2.17;;;2.40;78.00;;;;;;4910367;29;20469;-42
2021/11/23 00:52:38;;;;;;;2.70;2.17;;;2.40;78.10;;;;;;4909928;29;20840;-42
2021/11/23 00:55:06;;;;;;;2.43;2.13;;;2.40;78.00;;;;;;4909704;29;20818;-42
2021/11/23 00:57:34;;;;;;;4.10;2.70;;;2.50;78.00;;;;;;4894531;29;20499;-42
2021/11/23 01:00:01;;;;;;;2.33;2.13;;;2.40;78.00;;;;;;4890406;29;20529;-42
2021/11/23 01:02:27;;;;;;;3.60;2.30;;;2.40;78.10;;;;;;4906965;29;20471;-42
2021/11/23 01:04:54;;;;;;;3.83;2.40;;;2.40;78.10;;;;;;4890730;29;20471;-42
2021/11/23 01:07:22;;;;;;;2.80;2.60;;;2.40;78.10;;;;;;4910254;29;20469;-41
2021/11/23 01:09:49;;;;;;;4.63;3.13;;;2.30;78.10;;;;;;4902235;29;20469;-42
2021/11/23 01:12:16;;;;;;;3.00;2.80;;;2.30;78.10;;;;;;4910501;29;20464;-42
2021/11/23 01:14:43;;;;;;;3.33;2.60;;;2.20;78.20;;;;;;4892489;29;20465;-42
2021/11/23 01:17:14;;;;;;;5.47;2.80;;;2.20;78.10;;;;;;4910248;29;20492;-42
2021/11/23 01:19:44;;;;;;;2.90;2.67;;;2.20;78.20;;;;;;4908199;29;20449;-42
2021/11/23 01:22:11;;;;;;;4.60;2.50;;;2.20;78.30;;;;;;4909672;29;20964;-42
2021/11/23 01:24:38;;;;;;;4.40;3.07;;;2.20;78.30;;;;;;4892330;29;20847;-42
2021/11/23 01:27:05;;;;;;;4.27;3.23;;;2.10;78.30;;;;;;4909481;29;20548;-42
2021/11/23 01:29:34;;;;;;;5.33;4.27;;;2.10;78.20;;;;;;4909929;29;20953;-42
2021/11/23 01:32:01;;;;;;;6.87;3.57;;;2.10;78.40;;;;;;4909207;29;20473;-42
2021/11/23 01:34:28;;;;;;;2.63;2.40;;;2.10;78.40;;;;;;4910108;29;20445;-42
2021/11/23 01:36:55;;;;;;;3.50;2.47;;;2.00;78.30;;;;;;4910951;29;20456;-41
2021/11/23 01:39:24;;;;;;;4.70;3.80;;;2.00;78.20;;;;;;4908792;29;20824;-41
2021/11/23 01:41:51;;;;;;;7.00;3.10;;;2.00;78.20;;;;;;4891419;29;20464;-42
2021/11/23 01:44:18;;;;;;;5.00;3.17;;;2.00;78.30;;;;;;4907934;29;20461;-42
2021/11/23 01:46:45;;;;;;;5.20;3.70;;;2.00;78.40;;;;;;4905559;29;20469;-41
2021/11/23 01:49:11;;;;;;;4.03;2.57;;;2.00;78.60;;;;;;4905823;29;20469;-41
2021/11/23 01:51:39;;;;;;;2.70;2.50;;;2.00;78.60;;;;;;4909139;29;20468;-41
2021/11/23 01:54:06;;;;;;;3.30;2.30;;;2.00;78.70;;;;;;4907452;29;20483;-42
2021/11/23 01:56:33;;;;;;;2.60;2.40;;;2.00;78.80;;;;;;4908393;29;20501;-42
2021/11/23 01:59:01;;;;;;;3.93;2.70;;;2.00;78.70;;;;;;4891565;29;20496;-42
2021/11/23 02:01:28;;;;;;;2.70;2.50;;;2.00;78.80;;;;;;4908312;29;20456;-42
2021/11/23 02:03:56;;;;;;;5.60;4.07;;;2.00;78.80;;;;;;4892205;29;21000;-41
2021/11/23 02:06:23;;;;;;;4.90;3.10;;;2.00;78.80;;;;;;4890945;29;20940;-41
2021/11/23 02:08:50;;;;;;;3.27;2.97;;;2.00;78.90;;;;;;4906910;29;20472;-42
2021/11/23 02:11:17;;;;;;;3.70;3.40;;;2.00;78.80;;;;;;4906164;29;20837;-42
2021/11/23 02:13:44;;;;;;;5.47;2.77;;;2.00;78.80;;;;;;4891117;29;20851;-42
2021/11/23 02:16:11;;;;;;;3.13;2.80;;;1.90;78.80;;;;;;4882480;29;20477;-42
2021/11/23 02:18:38;;;;;;;2.70;2.50;;;1.90;78.90;;;;;;4891695;29;20496;-42
2021/11/23 02:21:05;;;;;;;2.63;2.43;;;1.90;79.00;;;;;;4907073;29;20477;-42
2021/11/23 02:23:32;;;;;;;3.57;2.73;;;1.90;79.00;;;;;;4884190;29;21276;-42
2021/11/23 02:25:59;;;;;;;2.77;2.47;;;1.90;79.00;;;;;;4905774;29;20617;-42
2021/11/23 02:28:26;;;;;;;3.03;2.40;;;1.90;79.00;;;;;;4883343;29;20477;-42
2021/11/23 02:30:55;;;;;;;3.53;2.23;;;1.90;79.10;;;;;;4905514;29;20472;-42
2021/11/23 02:33:23;;;;;;;3.00;2.63;;;1.90;79.10;;;;;;4893654;29;21094;-41
2021/11/23 02:35:52;;;;;;;2.47;2.10;;;1.90;79.20;;;;;;4909088;29;20476;-41
2021/11/23 02:38:24;;;;;;;2.70;2.50;;;1.90;79.30;;;;;;4908268;29;21015;-41
2021/11/23 02:40:52;;;;;;;2.80;2.60;;;1.90;79.20;;;;;;4891515;29;20462;-42
2021/11/23 02:43:19;;;;;;;3.23;2.67;;;1.90;79.20;;;;;;4911362;29;20469;-42
2021/11/23 02:45:46;;;;;;;5.20;2.53;;;1.80;79.10;;;;;;4910095;29;20474;-41
2021/11/23 02:48:14;;;;;;;5.33;3.27;;;1.80;79.30;;;;;;4911295;29;20912;-42
2021/11/23 02:50:46;;;;;;;2.80;2.60;;;1.80;79.20;;;;;;4895251;29;20467;-41
2021/11/23 02:53:14;;;;;;;3.00;2.40;;;1.80;79.20;;;;;;4910463;29;20464;-41
2021/11/23 02:55:41;;;;;;;3.33;2.70;;;1.80;79.20;;;;;;4911998;29;20476;-41
2021/11/23 02:58:10;;;;;;;3.93;3.10;;;1.80;79.20;;;;;;4912096;29;20492;-41
2021/11/23 03:00:39;;;;;;;10.40;8.67;;;1.70;79.30;;;;;;4907663;29;20452;-41
2021/11/23 03:03:06;;;;;;;8.70;5.97;;;1.70;79.30;;;;;;4910765;29;20499;-42
2021/11/23 03:05:34;;;;;;;6.80;6.10;;;1.70;79.40;;;;;;4895445;29;20491;-41
2021/11/23 03:08:01;;;;;;;6.40;4.30;;;1.70;79.30;;;;;;4910224;29;20480;-41
2021/11/23 03:10:30;;;;;;;2.97;2.77;;;1.70;79.40;;;;;;4910114;29;20505;-41
2021/11/23 03:12:59;;;;;;;2.90;2.70;;;1.80;79.20;;;;;;4897374;29;21048;-41
2021/11/23 03:15:26;;;;;;;4.13;2.80;;;1.70;79.10;;;;;;4894319;29;20850;-42
2021/11/23 03:17:53;;;;;;;3.40;2.10;;;1.70;79.20;;;;;;4910405;29;20492;-41
2021/11/23 03:20:22;;;;;;;2.60;2.40;;;1.70;79.20;;;;;;4909336;29;20839;-41
2021/11/23 03:22:50;;;;;;;2.03;1.93;;;1.70;79.30;;;;;;4911631;29;20457;-41
2021/11/23 03:25:18;;;;;;;3.10;2.50;;;1.70;79.40;;;;;;4909276;29;20473;-41
2021/11/23 03:27:45;;;;;;;2.67;2.47;;;1.70;79.30;;;;;;4907889;29;20453;-41
2021/11/23 03:30:15;;;;;;;3.83;2.40;;;1.60;79.50;;;;;;4912168;29;20475;-43
2021/11/23 03:32:42;;;;;;;2.77;2.57;;;1.60;79.60;;;;;;4898048;29;20464;-43
2021/11/23 03:35:09;;;;;;;4.63;2.40;;;1.50;79.60;;;;;;4896553;29;20465;-42
2021/11/23 03:37:36;;;;;;;3.13;2.13;;;1.50;79.70;;;;;;4909287;29;20445;-43
2021/11/23 03:40:05;;;;;;;2.73;2.20;;;1.50;79.70;;;;;;4906898;29;20452;-43
2021/11/23 03:42:31;;;;;;;2.10;2.00;;;1.60;79.60;;;;;;4922366;29;20457;-43
2021/11/23 03:44:59;;;;;;;2.20;1.97;;;1.50;79.50;;;;;;4921898;29;20537;-43
2021/11/23 03:47:29;;;;;;;2.57;2.00;;;1.50;79.50;;;;;;4920323;29;20567;-43
2021/11/23 03:49:57;;;;;;;1.63;1.53;;;1.60;79.50;;;;;;4922986;29;20472;-43
2021/11/23 03:52:24;;;;;;;2.27;2.07;;;1.50;79.50;;;;;;4919983;29;20468;-43
2021/11/23 03:54:52;;;;;;;2.40;2.20;;;1.50;79.60;;;;;;4903853;29;20823;-43
2021/11/23 03:57:19;;;;;;;2.27;1.90;;;1.50;79.50;;;;;;4923427;29;20492;-43
2021/11/23 03:59:47;;;;;;;1.93;1.83;;;1.40;79.60;;;;;;4921864;29;20507;-42
2021/11/23 04:02:19;;;;;;;3.03;2.17;;;1.40;79.70;;;;;;4906288;29;20461;-43
2021/11/23 04:04:47;;;;;;;2.13;1.93;;;1.40;79.70;;;;;;4918354;29;20884;-43
2021/11/23 04:07:14;;;;;;;3.63;2.30;;;1.50;79.70;;;;;;4923861;29;20469;-43
2021/11/23 04:09:41;;;;;;;3.67;2.67;;;1.50;79.60;;;;;;4923276;29;20465;-43
2021/11/23 04:12:09;;;;;;;2.30;2.17;;;1.40;79.60;;;;;;4919749;29;20456;-43
2021/11/23 04:14:37;;;;;;;2.40;2.20;;;1.40;79.70;;;;;;4921678;29;20524;-43
2021/11/23 04:17:05;;;;;;;2.57;2.37;;;1.40;79.80;;;;;;4921435;29;20448;-43
2021/11/23 04:19:32;;;;;;;2.20;2.00;;;1.40;79.70;;;;;;4924375;29;20515;-43
2021/11/23 04:22:00;;;;;;;1.60;1.50;;;1.40;79.60;;;;;;4922947;29;20465;-43
2021/11/23 04:24:28;;;;;;;2.90;2.40;;;1.40;79.70;;;;;;4920357;29;20983;-43
2021/11/23 04:26:55;;;;;;;4.20;2.10;;;1.40;79.70;;;;;;4920784;29;20848;-43
2021/11/23 04:29:22;;;;;;;4.10;2.30;;;1.40;79.60;;;;;;4919159;29;20465;-43
2021/11/23 04:31:49;;;;;;;2.20;2.00;;;1.40;79.40;;;;;;4921010;29;20460;-43
2021/11/23 04:34:17;;;;;;;3.43;2.20;;;1.30;79.40;;;;;;4905332;29;20825;-43
2021/11/23 04:36:44;;;;;;;6.40;2.23;;;1.30;79.50;;;;;;4919889;29;20547;-43
2021/11/23 04:39:11;;;;;;;2.77;2.40;;;1.30;79.60;;;;;;4921776;29;20493;-43
2021/11/23 04:41:42;;;;;;;3.20;2.30;;;1.30;79.60;;;;;;4917592;29;20529;-43
2021/11/23 04:44:09;;;;;;;2.37;2.17;;;1.30;79.70;;;;;;4919507;29;20457;-43
2021/11/23 04:46:36;;;;;;;2.43;2.23;;;1.30;79.70;;;;;;4921577;29;20463;-43
2021/11/23 04:49:05;;;;;;;1.90;1.80;;;1.30;79.60;;;;;;4918964;29;20488;-43
2021/11/23 04:51:32;;;;;;;2.27;2.07;;;1.30;79.60;;;;;;4923066;29;20847;-43
2021/11/23 04:53:59;;;;;;;2.97;2.30;;;1.30;79.70;;;;;;4921092;29;20457;-43
2021/11/23 04:56:26;;;;;;;2.53;2.13;;;1.20;79.80;;;;;;4921089;29;20476;-43
2021/11/23 04:58:52;;;;;;;2.87;2.13;;;1.20;79.70;;;;;;4918041;29;20497;-43
2021/11/23 05:01:20;;;;;;;3.40;2.10;;;1.20;79.80;;;;;;4921415;29;20990;-43
2021/11/23 05:03:48;;;;;;;2.87;2.67;;;1.20;79.90;;;;;;4919119;29;20840;-43
2021/11/23 05:06:15;;;;;;;2.63;2.23;;;1.20;79.90;;;;;;4904606;29;20468;-43
2021/11/23 05:08:42;;;;;;;3.03;2.07;;;1.20;80.00;;;;;;4923012;29;20477;-43
2021/11/23 05:11:10;;;;;;;2.30;2.00;;;1.10;79.90;;;;;;4920913;29;20484;-43
2021/11/23 05:13:37;;;;;;;5.37;2.10;;;1.10;79.90;;;;;;4920213;29;20464;-43
2021/11/23 05:16:05;;;;;;;5.97;2.70;;;1.20;80.00;;;;;;4904604;29;20465;-43
2021/11/23 05:18:32;;;;;;;3.77;3.37;;;1.10;80.00;;;;;;4903657;29;20592;-43
2021/11/23 05:20:59;;;;;;;2.80;2.53;;;1.10;80.00;;;;;;4921915;29;20525;-43
2021/11/23 05:23:26;;;;;;;3.87;3.47;;;1.10;80.10;;;;;;4921397;29;20457;-43
2021/11/23 05:25:55;;;;;;;3.67;3.27;;;1.10;80.20;;;;;;4909469;29;20500;-43
2021/11/23 05:28:22;;;;;;;3.13;2.93;;;1.10;80.20;;;;;;4918706;29;20465;-43
2021/11/23 05:30:51;;;;;;;3.93;3.00;;;1.10;80.20;;;;;;4920252;29;20551;-43
2021/11/23 05:33:18;;;;;;;3.20;2.30;;;1.10;80.20;;;;;;4921340;29;20599;-43
2021/11/23 05:35:49;;;;;;;3.10;2.70;;;1.20;80.20;;;;;;4902400;29;20468;-43
2021/11/23 05:38:20;;;;;;;4.20;2.67;;;1.20;80.10;;;;;;4918636;29;20464;-44
2021/11/23 05:40:48;;;;;;;3.83;2.63;;;1.10;80.10;;;;;;4920095;29;20532;-43
2021/11/23 05:43:15;;;;;;;3.37;2.50;;;1.10;80.20;;;;;;4921174;29;20471;-43
2021/11/23 05:45:43;;;;;;;4.93;2.60;;;1.10;80.30;;;;;;4889400;29;20560;-43
2021/11/23 05:48:11;;;;;;;2.90;2.60;;;1.10;80.30;;;;;;4920707;29;20792;-42
2021/11/23 05:50:39;;;;;;;3.23;3.03;;;1.10;80.40;;;;;;4917228;29;20516;-42
2021/11/23 05:53:07;;;;;;;3.33;2.83;;;1.00;80.50;;;;;;4920567;29;20457;-42
2021/11/23 05:55:35;;;;;;;3.70;3.03;;;1.00;80.50;;;;;;4921622;29;20567;-43
2021/11/23 05:58:02;;;;;;;5.67;3.00;;;1.10;80.50;;;;;;4920506;29;20445;-42
2021/11/23 06:00:29;;;;;;;5.07;3.37;;;1.10;80.50;;;;;;4902576;29;20564;-43
2021/11/23 06:02:56;;;;;;;3.30;2.63;;;1.10;80.50;;;;;;4917165;29;20473;-43
2021/11/23 06:05:24;;;;;;;5.60;3.60;;;1.10;80.30;;;;;;4918723;29;20828;-43
2021/11/23 06:07:51;;;;;;;2.97;2.67;;;1.10;80.20;;;;;;4901357;29;20555;-43
2021/11/23 06:10:18;;;;;;;4.03;2.50;;;1.00;80.30;;;;;;4919421;29;20979;-43
2021/11/23 06:12:45;;;;;;;3.60;3.30;;;1.00;80.50;;;;;;4902636;29;20477;-43
2021/11/23 06:15:14;;;;;;;6.57;3.53;;;1.00;80.60;;;;;;4923064;29;20468;-43
2021/11/23 06:17:42;;;;;;;7.23;4.10;;;1.00;80.70;;;;;;4933002;29;20461;-43
2021/11/23 06:20:09;;;;;;;2.83;2.50;;;1.00;80.70;;;;;;4922074;29;20495;-43
2021/11/23 06:22:36;;;;;;;3.03;2.83;;;1.00;80.50;;;;;;4918900;29;20467;-43
2021/11/23 06:25:06;;;;;;;3.93;2.63;;;1.10;80.20;;;;;;4923695;29;20491;-43
2021/11/23 06:27:35;;;;;;;7.70;2.93;;;1.00;80.10;;;;;;4922286;29;20555;-43
2021/11/23 06:30:04;;;;;;;3.03;2.73;;;1.00;79.90;;;;;;4921269;29;20556;-43
2021/11/23 06:32:31;;;;;;;6.33;2.70;;;1.00;79.90;;;;;;4923232;29;20476;-43
2021/11/23 06:34:58;;;;;;;4.20;2.90;;;1.00;79.90;;;;;;4924724;29;20866;-42
2021/11/23 06:37:25;;;;;;;3.03;2.37;;;1.00;79.80;;;;;;4923374;29;20453;-43
2021/11/23 06:39:51;;;;;;;4.70;2.50;;;0.90;79.80;;;;;;4902198;29;20486;-44
2021/11/23 06:42:18;;;;;;;2.93;2.60;;;0.90;79.90;;;;;;4920721;29;20846;-43
2021/11/23 06:44:45;;;;;;;3.70;2.50;;;0.90;80.00;;;;;;4923843;29;20479;-43
2021/11/23 06:47:12;;;;;;;3.17;2.87;;;0.90;80.00;;;;;;4922248;29;20475;-43
2021/11/23 06:49:39;;;;;;;3.70;3.00;;;0.90;80.00;;;;;;4923649;29;20836;-42
2021/11/23 06:52:06;;;;;;;4.33;3.73;;;0.90;80.10;;;;;;4910879;29;20465;-43
2021/11/23 06:54:34;;;;;;;4.97;4.00;;;0.90;80.00;;;;;;4918679;29;20889;-43
2021/11/23 06:57:01;;;;;;;5.03;2.70;;;1.00;79.60;;;;;;4919370;29;20934;-42
2021/11/23 06:59:27;;;;;;;3.97;3.60;;;0.90;79.60;;;;;;4921107;29;20506;-42
2021/11/23 07:01:54;;;;;;;3.73;3.10;;;0.90;79.70;;;;;;4907765;29;20556;-42
2021/11/23 07:04:21;;;;;;;4.00;3.60;;;0.90;79.80;;;;;;4920248;29;20461;-43
2021/11/23 07:06:48;;;;;;;4.37;3.23;;;0.90;80.10;;;;;;4921515;29;20476;-43
2021/11/23 07:09:16;;;;;;;3.27;2.43;;;0.80;80.20;;;;;;4919470;29;20473;-42
2021/11/23 07:11:43;;;;;;;6.60;3.33;;;0.80;80.20;;;;;;4919518;29;20476;-43
2021/11/23 07:14:12;;;;;;;3.93;3.30;;;0.80;80.50;;;;;;4915858;29;20473;-42
2021/11/23 07:16:39;;;;;;;3.43;3.10;;;0.90;80.60;;;;;;4915510;29;20472;-42
2021/11/23 07:19:06;;;;;;;3.33;3.03;;;0.90;80.70;;;;;;4917751;29;20488;-43
2021/11/23 07:21:34;;;;;;;4.73;3.13;;;0.90;80.60;;;;;;4918567;29;20460;-43
2021/11/23 07:24:03;;;;;;;4.27;3.10;;;0.90;80.60;;;;;;4903379;29;20469;-43
2021/11/23 07:26:31;;;;;;;3.77;3.47;;;0.90;80.70;;;;;;4905752;29;20825;-42
2021/11/23 07:28:59;;;;;;;3.60;3.30;;;0.90;80.80;;;;;;4921067;29;20548;-43
2021/11/23 07:31:26;;;;;;;4.20;3.77;;;0.90;80.90;;;;;;4920493;29;20473;-43
2021/11/23 07:33:53;;;;;;;3.90;3.50;;;0.90;81.10;;;;;;4898337;29;20511;-43
2021/11/23 07:36:21;;;;;;;3.47;3.20;;;1.00;80.80;;;;;;4918617;29;21083;-43
2021/11/23 07:38:49;;;;;;;3.10;2.90;;;0.90;80.90;;;;;;4915404;29;20473;-43
2021/11/23 07:41:16;;;;;;;4.47;3.57;;;0.90;81.00;;;;;;4917674;29;20461;-43
2021/11/23 07:43:43;;;;;;;4.10;3.30;;;0.90;81.20;;;;;;4918446;29;20464;-43
2021/11/23 07:46:10;;;;;;;3.23;2.80;;;1.00;81.30;;;;;;4917556;29;20535;-43
2021/11/23 07:48:37;;;;;;;3.27;2.97;;;1.00;81.40;;;;;;4918665;29;20527;-42
2021/11/23 07:51:05;;;;;;;3.30;3.10;;;1.00;81.30;;;;;;4916650;29;20465;-42
2021/11/23 07:53:32;;;;;;;4.50;3.60;;;1.10;81.50;;;;;;4901577;29;20485;-43
2021/11/23 07:55:59;;;;;;;6.30;4.43;;;1.10;81.30;;;;;;4921569;29;20568;-43
2021/11/23 07:58:27;;;;;;;5.90;3.93;;;1.10;81.60;;;;;;4922253;29;20457;-43
2021/11/23 08:00:53;;;;;;;3.97;3.67;;;1.20;81.70;;;;;;4924653;29;20771;-43
2021/11/23 08:03:20;;;;;;;5.50;3.60;;;1.20;81.60;;;;;;4922659;29;20463;-43
2021/11/23 08:05:48;;;;;;;7.03;3.37;;;1.30;81.40;;;;;;4915207;29;20979;-43
2021/11/23 08:08:14;;;;;;;3.20;3.00;;;1.30;81.50;;;;;;4920016;29;20976;-43
2021/11/23 08:10:42;;;;;;;5.57;3.80;;;1.30;81.70;;;;;;4903535;29;20468;-42
2021/11/23 08:13:09;;;;;;;5.73;3.83;;;1.30;81.80;;;;;;4919373;29;20497;-43
2021/11/23 08:15:36;;;;;;;4.27;3.97;;;1.30;82.00;;;;;;4902116;29;20460;-43
2021/11/23 08:18:07;;;;;;;10.57;4.47;;;1.40;82.00;;;;;;4922040;29;20464;-43
2021/11/23 08:20:34;;;;;;;4.93;3.93;;;1.40;81.90;;;;;;4897716;29;20507;-43
2021/11/23 08:23:02;;;;;;;4.40;3.97;;;1.40;82.10;;;;;;4921526;29;20465;-43
2021/11/23 08:25:30;;;;;;;4.20;3.70;;;1.50;82.30;;;;;;4922416;29;20473;-43
2021/11/23 08:27:57;;;;;;;5.33;4.30;;;1.50;82.40;;;;;;4905592;29;20457;-43
2021/11/23 08:30:24;;;;;;;4.63;4.10;;;1.60;82.50;;;;;;4916317;29;20473;-43
2021/11/23 08:32:51;;;;;;;6.50;4.33;;;1.60;82.50;;;;;;4918568;29;20499;-43
2021/11/23 08:35:18;;;;;;;5.33;3.63;;;1.60;82.50;;;;;;4920615;29;20924;-44
2021/11/23 08:37:45;;;;;;;5.10;4.00;;;1.70;82.70;;;;;;4919299;29;20474;-43
2021/11/23 08:40:12;;;;;;;4.57;4.03;;;1.70;82.80;;;;;;4922389;29;20489;-43
2021/11/23 08:42:39;;;;;;;5.43;4.80;;;1.80;82.70;;;;;;4905154;29;20463;-43
2021/11/23 08:45:06;;;;;;;5.03;4.63;;;1.80;82.70;;;;;;4919854;29;20457;-43
2021/11/23 08:47:34;;;;;;;8.03;5.07;;;1.80;82.90;;;;;;4919310;29;20472;-44
2021/11/23 08:50:01;;;;;;;9.90;5.30;;;2.00;83.10;;;;;;4903416;29;20465;-43
2021/11/23 08:52:27;;;;;;;7.60;5.30;;;2.00;82.80;;;;;;4921642;29;20964;-43
2021/11/23 08:54:55;;;;;;;5.53;4.97;;;2.00;83.10;;;;;;4907285;29;20835;-43
2021/11/23 08:57:22;;;;;;;5.73;5.00;;;2.20;83.00;;;;;;4917414;29;20480;-44
2021/11/23 08:59:51;;;;;;;8.50;5.40;;;2.20;82.70;;;;;;4904719;29;20514;-44
2021/11/23 09:02:18;;;;;;;5.47;4.70;;;2.10;83.10;;;;;;4909330;29;20479;-43
2021/11/23 09:04:45;;;;;;;6.50;5.50;;;2.20;83.40;;;;;;4921160;29;20490;-43
2021/11/23 09:07:16;;;;;;;8.00;5.60;;;2.20;83.60;;;;;;4903797;29;20865;-43
2021/11/23 09:09:44;;;;;;;7.80;5.50;;;2.30;83.70;;;;;;4920612;29;20497;-43
2021/11/23 09:12:16;;;;;;;5.43;4.80;;;2.40;83.80;;;;;;4919918;29;20467;-43
2021/11/23 09:14:43;;;;;;;6.77;4.40;;;2.50;83.70;;;;;;4917615;29;20496;-43
2021/11/23 09:17:10;;;;;;;4.47;4.17;;;2.60;83.60;;;;;;4920301;29;20956;-43
2021/11/23 09:19:37;;;;;;;5.90;4.63;;;2.70;83.30;;;;;;4905683;29;20875;-43
2021/11/23 09:22:04;;;;;;;5.17;4.67;;;2.80;83.20;;;;;;4921908;29;20464;-43
2021/11/23 09:24:32;;;;;;;4.77;4.20;;;2.90;82.60;;;;;;4902160;29;20469;-43
2021/11/23 09:26:59;;;;;;;4.77;4.23;;;2.90;81.90;;;;;;4894395;29;20472;-43
2021/11/23 09:29:26;;;;;;;6.53;3.77;;;3.00;81.60;;;;;;4918659;29;20465;-43
2021/11/23 09:31:53;;;;;;;6.33;4.03;;;3.10;81.20;;;;;;4920239;29;20862;-43
2021/11/23 09:34:22;;;;;;;4.40;4.07;;;3.30;81.20;;;;;;4918084;29;20476;-43
2021/11/23 09:36:54;;;;;;;4.97;4.57;;;3.60;80.80;;;;;;4918838;29;20828;-43
2021/11/23 09:39:22;;;;;;;4.73;4.33;;;3.90;79.50;;;;;;4900560;29;20552;-43
2021/11/23 09:41:49;;;;;;;4.53;4.03;;;4.20;78.90;;;;;;4917937;29;20475;-43
2021/11/23 09:44:16;;;;;;;4.93;4.53;;;4.40;78.00;;;;;;4913895;29;20467;-44
2021/11/23 09:46:43;;;;;;;4.60;3.60;;;4.50;77.50;;;;;;4917733;29;20488;-43
2021/11/23 09:49:10;;;;;;;4.67;4.20;;;4.70;77.10;;;;;;4920303;29;20508;-45
2021/11/23 09:51:38;;;;;;;4.03;3.63;;;4.80;74.80;;;;;;4919919;29;20941;-44
2021/11/23 09:54:08;;;;;;;4.43;4.03;;;4.80;75.10;;;;;;4918759;29;20491;-45
2021/11/23 09:56:37;;;;;;;5.27;4.40;;;4.80;75.60;;;;;;4918733;29;20850;-44
2021/11/23 09:59:10;;;;;;;4.77;4.33;;;4.90;74.80;;;;;;4918800;29;20460;-44
2021/11/23 10:01:56;;;;;;;4.13;3.60;;;4.90;74.30;;;;;;4900479;29;20496;-44
2021/11/23 10:04:36;;;;;;;4.63;3.53;;;4.90;74.50;;;;;;4920645;29;20453;-44
2021/11/23 10:07:06;;;;;;;6.27;4.97;;;4.90;74.60;;;;;;4919403;29;20485;-44
2021/11/23 10:09:39;;;;;;;3.67;3.37;;;4.90;74.30;;;;;;4917320;29;20481;-44
2021/11/23 10:12:24;;;;;;;5.23;3.70;;;4.90;73.40;;;;;;4917735;29;20445;-44
2021/11/23 10:15:11;;;;;;;4.40;4.00;;;5.00;72.20;;;;;;4917177;29;20496;-44
2021/11/23 10:17:41;;;;;;;4.70;4.30;;;5.00;72.40;;;;;;4919739;29;20548;-44
2021/11/23 10:20:24;;;;;;;5.63;4.00;;;5.10;72.40;;;;;;4916535;29;20485;-44
2021/11/23 10:22:51;;;;;;;4.50;4.10;;;5.10;71.50;;;;;;4918626;29;20469;-44
2021/11/23 10:25:18;;;;;;;5.33;4.33;;;5.10;71.50;;;;;;4915549;29;20461;-44
2021/11/23 10:27:46;;;;;;;7.67;4.10;;;5.00;72.10;;;;;;4915509;29;20465;-44
2021/11/23 10:30:13;;;;;;;5.60;3.93;;;5.10;72.30;;;;;;4914474;29;20474;-44
2021/11/23 10:32:48;;;;;;;5.57;4.10;;;5.20;74.80;;;;;;4914253;29;20471;-43
2021/11/23 10:35:18;;;;;;;4.17;3.77;;;5.20;74.50;;;;;;4904411;29;20496;-44
2021/11/23 10:37:45;;;;;;;5.30;4.07;;;5.20;73.70;;;;;;4916673;29;20472;-44
2021/11/23 10:40:17;;;;;;;5.30;4.80;;;5.20;73.20;;;;;;4904036;29;20493;-45
2021/11/23 10:42:49;;;;;;;4.63;3.87;;;5.20;72.50;;;;;;4918363;29;20499;-44
2021/11/23 10:45:16;;;;;;;5.53;3.27;;;5.20;72.50;;;;;;4917470;29;20471;-45
2021/11/23 10:47:46;;;;;;;4.87;3.47;;;5.20;72.30;;;;;;4918270;29;20461;-44
2021/11/23 10:50:15;;;;;;;6.73;4.13;;;5.30;72.20;;;;;;4914693;29;20460;-44
2021/11/23 10:52:50;;;;;;;5.97;4.30;;;5.30;72.00;;;;;;4915878;29;20464;-44
2021/11/23 10:55:17;;;;;;;7.10;4.60;;;5.40;72.00;;;;;;4915568;29;20488;-44
2021/11/23 10:57:44;;;;;;;3.60;3.30;;;5.50;72.00;;;;;;4919014;29;20461;-44
2021/11/23 11:00:13;;;;;;;4.20;3.80;;;5.50;71.80;;;;;;4904369;29;20496;-43
2021/11/23 11:02:42;;;;;;;4.70;4.27;;;5.60;71.00;;;;;;4900109;29;20486;-43
2021/11/23 11:05:15;;;;;;;8.47;5.03;;;5.60;70.70;;;;;;4904116;29;20457;-44
2021/11/23 11:07:45;;;;;;;4.87;4.47;;;5.70;70.90;;;;;;4919282;29;20547;-44
2021/11/23 11:10:13;;;;;;;6.97;4.10;;;5.70;71.00;;;;;;4918899;29;20466;-44
2021/11/23 11:12:40;;;;;;;5.40;4.30;;;5.90;70.20;;;;;;4919786;29;20476;-45
2021/11/23 11:15:11;;;;;;;5.07;3.43;;;5.90;70.20;;;;;;4921062;29;20464;-43
2021/11/23 11:17:39;;;;;;;4.50;4.10;;;6.00;70.40;;;;;;4918926;29;20450;-44
2021/11/23 11:20:11;;;;;;;3.50;3.20;;;6.00;69.40;;;;;;4919868;29;20865;-44
2021/11/23 11:22:55;;;;;;;5.60;3.93;;;6.00;68.70;;;;;;4920154;29;20469;-43
2021/11/23 11:25:27;;;;;;;4.37;3.97;;;6.00;68.50;;;;;;4903855;29;20464;-43
2021/11/23 11:27:54;;;;;;;4.27;3.73;;;6.00;68.50;;;;;;4921162;29;20473;-44
2021/11/23 11:30:36;;;;;;;3.83;3.50;;;6.00;68.00;;;;;;4920015;29;20473;-44
2021/11/23 11:33:09;;;;;;;4.37;3.27;;;6.10;68.50;;;;;;4902738;29;20472;-43
2021/11/23 11:35:46;;;;;;;4.13;3.20;;;6.10;68.20;;;;;;4902213;29;20465;-43
2021/11/23 11:38:33;;;;;;;3.77;3.37;;;6.20;68.60;;;;;;4917014;29;20471;-43
2021/11/23 11:41:06;;;;;;;3.80;3.40;;;6.30;68.90;;;;;;4915293;29;20481;-44
2021/11/23 11:43:36;;;;;;;3.93;3.63;;;6.40;68.50;;;;;;4918704;29;20489;-43
2021/11/23 11:46:03;;;;;;;6.10;4.10;;;6.50;68.90;;;;;;4898552;29;20457;-43
2021/11/23 11:48:34;;;;;;;4.93;3.73;;;6.40;68.40;;;;;;4918108;29;21055;-44
2021/11/23 11:51:15;;;;;;;6.87;3.80;;;6.40;67.80;;;;;;4904669;29;20463;-44
2021/11/23 11:53:50;;;;;;;3.40;2.90;;;6.50;67.70;;;;;;4920793;29;20484;-44
2021/11/23 11:56:37;;;;;;;4.27;3.87;;;6.50;67.20;;;;;;4920539;29;20483;-43
2021/11/23 11:59:25;;;;;;;4.50;3.70;;;6.60;67.40;;;;;;4920164;29;20457;-44
2021/11/23 12:01:54;;;;;;;3.63;3.00;;;6.70;66.50;;;;;;4904260;29;20548;-43
2021/11/23 12:04:23;;;;;;;5.17;3.37;;;6.70;65.70;;;;;;4919940;29;20465;-43
2021/11/23 12:07:11;;;;;;;3.77;3.00;;;6.80;66.30;;;;;;4903776;29;20491;-44
2021/11/23 12:09:54;;;;;;;4.27;2.97;;;6.70;66.90;;;;;;4920749;29;20457;-43
2021/11/23 12:12:26;;;;;;;4.80;3.30;;;6.80;66.50;;;;;;4921351;29;20510;-44
2021/11/23 12:14:53;;;;;;;8.80;3.50;;;6.90;65.50;;;;;;4920382;29;20460;-44
2021/11/23 12:17:36;;;;;;;3.90;3.43;;;6.90;65.50;;;;;;4905070;29;20453;-43
2021/11/23 12:20:27;;;;;;;4.53;3.70;;;6.90;65.40;;;;;;4919512;29;20488;-44
2021/11/23 12:23:11;;;;;;;5.20;2.93;;;6.90;65.30;;;;;;4915057;29;20457;-44
2021/11/23 12:25:37;;;;;;;5.90;2.90;;;6.90;65.40;;;;;;4919855;29;20479;-44
2021/11/23 12:28:08;;;;;;;3.73;3.43;;;7.00;65.80;;;;;;4903636;29;20453;-44
2021/11/23 12:30:34;;;;;;;9.90;4.10;;;7.00;66.20;;;;;;4922257;29;20975;-44
2021/11/23 12:33:01;;;;;;;5.43;3.23;;;7.10;65.70;;;;;;4921133;29;20458;-44
2021/11/23 12:35:29;;;;;;;6.07;4.50;;;7.10;65.10;;;;;;4919885;29;20461;-44
2021/11/23 12:37:56;;;;;;;3.13;2.83;;;7.10;64.30;;;;;;4918288;29;20473;-44
2021/11/23 12:40:26;;;;;;;4.60;2.50;;;7.20;64.00;;;;;;4917961;29;20493;-44
2021/11/23 12:42:56;;;;;;;2.20;2.10;;;7.20;63.90;;;;;;4916674;29;20545;-44
2021/11/23 12:45:36;;;;;;;2.80;1.57;;;7.30;63.80;;;;;;4918948;29;20576;-44
2021/11/23 12:48:05;;;;;;;2.20;1.50;;;7.40;63.40;;;;;;4918489;29;20461;-44
2021/11/23 12:50:34;;;;;;;5.03;2.27;;;7.40;63.70;;;;;;4904335;29;20998;-44
2021/11/23 12:53:08;;;;;;;2.10;1.90;;;7.50;63.70;;;;;;4903115;29;20468;-44
2021/11/23 12:55:35;;;;;;;4.67;3.03;;;7.50;63.80;;;;;;4922567;29;20487;-44
2021/11/23 12:58:03;;;;;;;1.87;1.77;;;7.60;63.30;;;;;;4918308;29;21728;-44
2021/11/23 13:00:31;;;;;;;3.27;2.30;;;7.70;63.00;;;;;;4921426;29;20501;-44
2021/11/23 13:02:58;;;;;;;2.70;2.20;;;7.80;63.00;;;;;;4908307;29;20461;-44
2021/11/23 13:05:32;;;;;;;2.30;1.83;;;7.80;63.10;;;;;;4903776;29;20494;-44